createdAt,value
2019-01-30T00:01:48.772Z,3.30
2019-01-30T00:04:15.656Z,2.97
2019-01-30T00:06:42.369Z,3.30
2019-01-30T00:09:09.145Z,3.33
2019-01-30T00:11:35.867Z,3.03
2019-01-30T00:14:04.126Z,3.40
2019-01-30T00:16:30.892Z,3.40
2019-01-30T00:18:57.636Z,4.50
2019-01-30T00:21:24.425Z,3.60
2019-01-30T00:23:51.145Z,3.97
2019-01-30T00:26:18.007Z,4.03
2019-01-30T00:28:44.747Z,3.90
2019-01-30T00:31:11.495Z,3.87
2019-01-30T00:33:38.247Z,3.20
2019-01-30T00:36:04.998Z,3.40
2019-01-30T00:38:31.772Z,3.77
2019-01-30T00:40:58.509Z,3.93
2019-01-30T00:43:25.238Z,4.20
2019-01-30T00:45:52.027Z,3.77
2019-01-30T00:48:18.760Z,3.33
2019-01-30T00:50:45.545Z,3.53
2019-01-30T00:53:12.272Z,3.30
2019-01-30T00:55:39.004Z,3.20
2019-01-30T00:58:05.806Z,3.90
2019-01-30T01:00:32.551Z,3.80
2019-01-30T01:02:59.334Z,3.70
2019-01-30T01:05:26.066Z,3.67
2019-01-30T01:07:52.803Z,3.20
2019-01-30T01:10:20.378Z,3.40
2019-01-30T01:12:47.126Z,3.80
2019-01-30T01:15:15.230Z,3.90
2019-01-30T01:17:42.000Z,2.90
2019-01-30T01:20:16.138Z,3.33
2019-01-30T01:22:42.935Z,3.37
2019-01-30T01:25:17.054Z,3.60
2019-01-30T01:27:43.889Z,3.60
2019-01-30T01:30:25.310Z,3.40
2019-01-30T01:32:49.953Z,3.93
2019-01-30T01:35:16.748Z,3.77
2019-01-30T01:37:43.617Z,3.43
2019-01-30T01:40:15.279Z,3.70
2019-01-30T01:42:42.085Z,3.60
2019-01-30T01:45:18.174Z,3.60
2019-01-30T01:47:45.051Z,3.80
2019-01-30T01:50:14.623Z,3.33
2019-01-30T01:52:41.426Z,3.17
2019-01-30T01:55:10.477Z,3.50
2019-01-30T01:57:37.261Z,4.97
2019-01-30T02:00:20.536Z,3.77
2019-01-30T02:02:47.435Z,4.13
2019-01-30T02:05:17.238Z,3.60
2019-01-30T02:07:44.070Z,3.80
2019-01-30T02:10:14.763Z,3.87
2019-01-30T02:12:41.619Z,4.43
2019-01-30T02:15:12.914Z,3.63
2019-01-30T02:17:39.753Z,3.87
2019-01-30T02:20:16.105Z,4.10
2019-01-30T02:22:42.895Z,4.00
2019-01-30T02:25:11.092Z,4.00
2019-01-30T02:27:37.908Z,4.00
2019-01-30T02:30:15.031Z,4.30
2019-01-30T02:32:41.848Z,3.60
2019-01-30T02:35:08.644Z,3.40
2019-01-30T02:37:35.476Z,3.60
2019-01-30T02:40:05.374Z,3.50
2019-01-30T02:42:32.184Z,3.63
2019-01-30T02:44:58.977Z,3.20
2019-01-30T02:47:25.777Z,3.80
2019-01-30T02:49:52.620Z,3.53
2019-01-30T02:52:19.424Z,3.60
2019-01-30T02:54:46.225Z,3.70
2019-01-30T02:57:13.054Z,3.27
2019-01-30T02:59:39.828Z,3.27
2019-01-30T03:02:06.671Z,3.80
2019-01-30T03:04:33.444Z,3.10
2019-01-30T03:07:00.315Z,3.50
2019-01-30T03:09:27.104Z,3.43
2019-01-30T03:11:53.907Z,3.43
2019-01-30T03:14:20.775Z,3.00
2019-01-30T03:16:51.491Z,3.43
2019-01-30T03:19:18.286Z,3.10
2019-01-30T03:21:45.113Z,3.10
2019-01-30T03:24:11.897Z,3.57
2019-01-30T03:26:38.734Z,3.70
2019-01-30T03:29:05.529Z,3.33
2019-01-30T03:31:32.387Z,3.47
2019-01-30T03:33:59.192Z,3.30
2019-01-30T03:36:25.974Z,3.87
2019-01-30T03:38:52.805Z,3.80
2019-01-30T03:41:19.531Z,4.27
2019-01-30T03:43:46.301Z,3.80
2019-01-30T03:46:13.033Z,3.80
2019-01-30T03:48:39.766Z,4.17
2019-01-30T03:51:06.580Z,4.27
2019-01-30T03:53:33.333Z,4.23
2019-01-30T03:56:00.099Z,4.37
2019-01-30T03:58:26.842Z,3.90
2019-01-30T04:00:53.632Z,4.57
2019-01-30T04:03:20.391Z,4.70
2019-01-30T04:05:47.101Z,5.20
2019-01-30T04:08:13.859Z,4.80
2019-01-30T04:10:40.596Z,4.57
2019-01-30T04:13:07.413Z,4.70
2019-01-30T04:15:34.133Z,5.13
2019-01-30T04:18:00.918Z,5.07
2019-01-30T04:20:27.669Z,4.63
2019-01-30T04:22:54.388Z,4.53
2019-01-30T04:25:21.149Z,4.80
2019-01-30T04:27:47.865Z,5.20
2019-01-30T04:30:24.991Z,7.67
2019-01-30T04:32:51.732Z,8.57
2019-01-30T04:35:18.446Z,9.10
2019-01-30T04:37:45.207Z,8.60
2019-01-30T04:40:18.392Z,7.83
2019-01-30T04:43:04.909Z,7.33
2019-01-30T04:45:31.632Z,5.07
2019-01-30T04:47:58.406Z,5.07
2019-01-30T04:50:25.145Z,4.87
2019-01-30T04:52:51.928Z,9.90
2019-01-30T04:55:18.665Z,11.67
2019-01-30T04:57:45.403Z,21.70
2019-01-30T05:00:16.491Z,17.43
2019-01-30T05:02:43.211Z,9.60
2019-01-30T05:05:10.991Z,8.27
2019-01-30T05:07:37.737Z,7.73
2019-01-30T05:10:08.422Z,6.53
2019-01-30T05:12:35.141Z,10.77
2019-01-30T05:15:02.359Z,27.23
2019-01-30T05:17:29.144Z,35.83
2019-01-30T05:19:55.911Z,47.83
2019-01-30T05:22:22.653Z,15.97
2019-01-30T05:24:49.391Z,12.07
2019-01-30T05:27:16.129Z,11.37
2019-01-30T05:29:42.907Z,10.00
2019-01-30T05:32:09.635Z,9.43
2019-01-30T05:34:36.468Z,10.90
2019-01-30T05:37:03.194Z,12.63
2019-01-30T05:39:29.959Z,14.27
2019-01-30T05:41:56.699Z,11.07
2019-01-30T05:44:23.503Z,10.60
2019-01-30T05:46:50.222Z,14.13
2019-01-30T05:49:16.963Z,8.37
2019-01-30T05:51:43.724Z,10.67
2019-01-30T05:54:10.458Z,9.63
2019-01-30T05:56:37.270Z,11.53
2019-01-30T05:59:04.018Z,11.97
2019-01-30T06:01:30.740Z,11.80
2019-01-30T06:03:57.513Z,11.37
2019-01-30T06:06:26.536Z,9.90
2019-01-30T06:08:53.346Z,9.17
2019-01-30T06:11:20.110Z,9.87
2019-01-30T06:13:46.911Z,16.17
2019-01-30T06:16:13.634Z,15.90
2019-01-30T06:18:40.366Z,16.30
2019-01-30T06:21:08.997Z,12.00
2019-01-30T06:23:35.731Z,12.47
2019-01-30T06:26:02.519Z,16.27
2019-01-30T06:28:29.535Z,17.30
2019-01-30T06:30:56.327Z,19.40
2019-01-30T06:33:23.098Z,20.87
2019-01-30T06:35:49.855Z,14.43
2019-01-30T06:38:16.653Z,13.43
2019-01-30T06:40:43.421Z,16.23
2019-01-30T06:43:10.195Z,16.07
2019-01-30T06:45:36.938Z,16.30
2019-01-30T06:48:03.790Z,16.00
2019-01-30T06:50:30.572Z,15.60
2019-01-30T06:52:57.322Z,14.83
2019-01-30T06:55:24.070Z,12.40
2019-01-30T06:57:50.843Z,21.63
2019-01-30T07:00:22.086Z,18.73
2019-01-30T07:02:48.976Z,17.00
2019-01-30T07:05:15.723Z,44.07
2019-01-30T07:07:42.522Z,13.37
2019-01-30T07:10:16.694Z,13.60
2019-01-30T07:12:43.432Z,14.13
2019-01-30T07:15:10.197Z,17.80
2019-01-30T07:17:36.918Z,16.87
2019-01-30T07:20:08.255Z,15.57
2019-01-30T07:22:35.003Z,15.10
2019-01-30T07:25:01.795Z,16.33
2019-01-30T07:27:28.557Z,20.07
2019-01-30T07:29:55.344Z,18.33
2019-01-30T07:32:22.072Z,20.47
2019-01-30T07:34:48.823Z,22.30
2019-01-30T07:37:15.563Z,24.17
2019-01-30T07:39:42.344Z,26.23
2019-01-30T07:42:09.092Z,23.63
2019-01-30T07:44:35.877Z,19.07
2019-01-30T07:47:02.603Z,16.70
2019-01-30T07:49:29.333Z,17.03
2019-01-30T07:51:56.118Z,21.40
2019-01-30T07:54:22.847Z,18.70
2019-01-30T07:56:49.613Z,20.83
2019-01-30T07:59:16.321Z,14.73
2019-01-30T08:01:43.111Z,13.03
2019-01-30T08:04:09.836Z,15.90
2019-01-30T08:06:36.647Z,14.00
2019-01-30T08:09:06.881Z,15.70
2019-01-30T08:11:33.676Z,14.70
2019-01-30T08:14:01.967Z,11.30
2019-01-30T08:16:28.964Z,11.13
2019-01-30T08:18:55.746Z,12.53
2019-01-30T08:21:22.479Z,11.93
2019-01-30T08:23:49.383Z,12.17
2019-01-30T08:26:16.447Z,9.60
2019-01-30T08:28:43.365Z,9.70
2019-01-30T08:31:10.465Z,9.97
2019-01-30T08:33:37.321Z,10.53
2019-01-30T08:36:04.089Z,8.90
2019-01-30T08:38:30.867Z,8.47
2019-01-30T08:40:57.622Z,7.70
2019-01-30T08:43:24.365Z,8.13
2019-01-30T08:45:51.144Z,9.03
2019-01-30T08:48:17.883Z,31.93
2019-01-30T08:50:44.667Z,44.33
2019-01-30T08:53:11.397Z,51.93
2019-01-30T08:55:38.233Z,21.63
2019-01-30T08:58:04.990Z,14.07
2019-01-30T09:00:31.737Z,11.60
2019-01-30T09:02:58.499Z,8.87
2019-01-30T09:05:25.228Z,8.27
2019-01-30T09:07:52.011Z,14.23
2019-01-30T09:10:24.095Z,10.80
2019-01-30T09:12:50.837Z,11.40
2019-01-30T09:15:19.814Z,12.07
2019-01-30T09:17:46.543Z,11.47
2019-01-30T09:20:16.023Z,11.37
2019-01-30T09:22:42.801Z,10.37
2019-01-30T09:25:27.692Z,9.03
2019-01-30T09:27:54.410Z,7.80
2019-01-30T09:30:28.851Z,9.20
2019-01-30T09:32:55.857Z,9.37
2019-01-30T09:35:22.563Z,10.70
2019-01-30T09:37:49.324Z,11.67
2019-01-30T09:40:19.041Z,12.07
2019-01-30T09:42:45.938Z,11.93
2019-01-30T09:45:17.733Z,10.77
2019-01-30T09:47:44.532Z,8.37
2019-01-30T09:50:14.852Z,7.20
2019-01-30T09:52:41.593Z,4.90
2019-01-30T09:55:11.859Z,6.50
2019-01-30T09:57:38.582Z,5.80
2019-01-30T10:00:13.450Z,5.57
2019-01-30T10:02:40.183Z,6.33
2019-01-30T10:05:10.760Z,5.00
2019-01-30T10:07:37.495Z,4.17
2019-01-30T10:10:12.642Z,3.40
2019-01-30T10:12:39.352Z,3.37
2019-01-30T10:15:11.224Z,2.90
2019-01-30T10:17:37.994Z,3.20
2019-01-30T10:20:12.559Z,2.67
2019-01-30T10:22:39.293Z,2.90
2019-01-30T10:25:08.478Z,3.20
2019-01-30T10:27:35.247Z,2.83
2019-01-30T10:30:03.016Z,3.20
2019-01-30T10:32:29.819Z,3.00
2019-01-30T10:34:56.548Z,3.07
2019-01-30T10:37:23.339Z,3.30
2019-01-30T10:39:50.076Z,4.03
2019-01-30T10:42:16.870Z,3.70
2019-01-30T10:44:43.604Z,3.77
2019-01-30T10:47:10.395Z,3.50
2019-01-30T10:49:37.130Z,5.27
2019-01-30T10:52:03.880Z,4.40
2019-01-30T10:54:30.647Z,5.17
2019-01-30T10:56:57.410Z,3.83
2019-01-30T10:59:26.656Z,3.90
2019-01-30T11:01:52.699Z,3.63
2019-01-30T11:04:19.533Z,3.77
2019-01-30T11:06:46.274Z,4.80
2019-01-30T11:09:13.039Z,4.13
2019-01-30T11:11:39.775Z,3.67
2019-01-30T11:14:06.700Z,4.23
2019-01-30T11:16:33.435Z,4.50
2019-01-30T11:19:00.228Z,4.10
2019-01-30T11:21:26.946Z,4.20
2019-01-30T11:23:53.781Z,3.40
2019-01-30T11:26:20.553Z,4.10
2019-01-30T11:28:47.279Z,4.70
2019-01-30T11:31:14.061Z,3.17
2019-01-30T11:33:40.821Z,2.60
2019-01-30T11:36:07.553Z,3.10
2019-01-30T11:38:34.281Z,3.07
2019-01-30T11:41:01.085Z,2.97
2019-01-30T11:43:27.818Z,2.40
2019-01-30T11:45:54.564Z,2.83
2019-01-30T11:48:21.350Z,3.50
2019-01-30T11:50:48.079Z,2.67
2019-01-30T11:53:14.871Z,2.67
2019-01-30T11:55:41.604Z,2.60
2019-01-30T11:58:08.370Z,2.90
2019-01-30T12:00:35.391Z,2.20
2019-01-30T12:03:02.174Z,2.50
2019-01-30T12:05:28.908Z,2.53
2019-01-30T12:07:55.652Z,4.20
2019-01-30T12:10:22.433Z,2.40
2019-01-30T12:12:49.169Z,2.90
2019-01-30T12:15:24.352Z,3.03
2019-01-30T12:17:51.153Z,2.97
2019-01-30T12:20:17.913Z,2.53
2019-01-30T12:22:44.747Z,2.80
2019-01-30T12:25:16.186Z,2.87
2019-01-30T12:27:42.918Z,2.40
2019-01-30T12:30:25.498Z,2.97
2019-01-30T12:32:52.206Z,3.00
2019-01-30T12:35:18.999Z,2.60
2019-01-30T12:37:45.754Z,2.77
2019-01-30T12:40:16.236Z,2.43
2019-01-30T12:42:42.988Z,3.20
2019-01-30T12:45:17.108Z,2.30
2019-01-30T12:47:43.851Z,3.80
2019-01-30T12:50:10.619Z,2.80
2019-01-30T12:52:37.335Z,2.60
2019-01-30T12:55:07.989Z,2.20
2019-01-30T12:57:34.780Z,2.50
2019-01-30T13:00:01.491Z,2.87
2019-01-30T13:02:28.267Z,2.60
2019-01-30T13:04:55.021Z,2.40
2019-01-30T13:07:21.879Z,2.50
2019-01-30T13:09:48.627Z,2.17
2019-01-30T13:12:15.412Z,2.20
2019-01-30T13:14:42.151Z,2.50
2019-01-30T13:17:09.053Z,2.07
2019-01-30T13:19:35.757Z,2.40
2019-01-30T13:22:02.543Z,2.20
2019-01-30T13:24:29.335Z,2.60
2019-01-30T13:26:57.007Z,2.13
2019-01-30T13:29:23.794Z,2.20
2019-01-30T13:31:50.552Z,2.40
2019-01-30T13:34:17.539Z,3.30
2019-01-30T13:36:44.271Z,2.80
2019-01-30T13:39:11.055Z,2.97
2019-01-30T13:41:37.791Z,2.27
2019-01-30T13:44:04.572Z,2.87
2019-01-30T13:46:31.302Z,2.20
2019-01-30T13:48:58.073Z,2.47
2019-01-30T13:51:24.796Z,2.20
2019-01-30T13:53:51.619Z,2.57
2019-01-30T13:56:18.355Z,2.30
2019-01-30T13:58:45.088Z,2.57
2019-01-30T14:01:17.552Z,2.53
2019-01-30T14:03:40.422Z,2.83
2019-01-30T14:06:07.190Z,2.63
2019-01-30T14:08:33.906Z,2.30
2019-01-30T14:11:00.657Z,2.60
2019-01-30T14:13:27.375Z,2.70
2019-01-30T14:15:54.181Z,2.27
2019-01-30T14:18:22.130Z,2.13
2019-01-30T14:20:48.846Z,2.33
2019-01-30T14:23:15.633Z,2.13
2019-01-30T14:25:42.432Z,2.23
2019-01-30T14:28:09.225Z,2.20
2019-01-30T14:30:36.011Z,2.10
2019-01-30T14:33:02.786Z,2.10
2019-01-30T14:35:31.919Z,2.00
2019-01-30T14:37:59.400Z,2.30
2019-01-30T14:40:26.166Z,8.30
2019-01-30T14:42:53.002Z,4.27
2019-01-30T14:45:19.979Z,3.57
2019-01-30T14:47:48.704Z,4.17
2019-01-30T14:50:19.154Z,3.40
2019-01-30T14:52:45.919Z,3.13
2019-01-30T14:55:12.721Z,3.60
2019-01-30T14:57:39.466Z,5.07
2019-01-30T15:00:17.070Z,5.03
2019-01-30T15:02:43.802Z,4.77
2019-01-30T15:05:21.910Z,2.90
2019-01-30T15:07:41.607Z,2.70
2019-01-30T15:10:18.380Z,2.20
2019-01-30T15:12:45.130Z,2.70
2019-01-30T15:15:18.489Z,3.30
2019-01-30T15:17:45.188Z,2.60
2019-01-30T15:20:27.746Z,2.40
2019-01-30T15:22:54.457Z,3.90
2019-01-30T15:25:22.851Z,2.60
2019-01-30T15:27:49.623Z,2.50
2019-01-30T15:30:27.421Z,2.30
2019-01-30T15:32:54.147Z,2.77
2019-01-30T15:35:20.916Z,3.03
2019-01-30T15:37:47.824Z,3.30
2019-01-30T15:40:21.653Z,3.47
2019-01-30T15:42:49.382Z,2.60
2019-01-30T15:45:19.455Z,2.40
2019-01-30T15:47:46.191Z,2.33
2019-01-30T15:50:16.279Z,2.23
2019-01-30T15:52:43.027Z,2.53
2019-01-30T15:55:12.927Z,3.63
2019-01-30T15:57:39.802Z,3.10
2019-01-30T16:00:17.816Z,2.80
2019-01-30T16:02:44.588Z,3.07
2019-01-30T16:05:11.529Z,2.83
2019-01-30T16:07:38.312Z,12.00
2019-01-30T16:10:09.960Z,21.20
2019-01-30T16:12:36.766Z,16.50
2019-01-30T16:15:08.919Z,6.60
2019-01-30T16:17:35.708Z,3.50
2019-01-30T16:20:07.117Z,3.23
2019-01-30T16:22:33.925Z,2.97
2019-01-30T16:25:08.837Z,3.30
2019-01-30T16:27:29.221Z,3.13
2019-01-30T16:29:55.975Z,3.50
2019-01-30T16:32:22.707Z,3.43
2019-01-30T16:34:49.471Z,2.97
2019-01-30T16:37:16.206Z,3.27
2019-01-30T16:39:42.989Z,2.67
2019-01-30T16:42:09.765Z,3.70
2019-01-30T16:44:36.487Z,3.17
2019-01-30T16:47:03.292Z,3.43
2019-01-30T16:49:30.025Z,2.90
2019-01-30T16:51:56.860Z,4.70
2019-01-30T16:54:23.794Z,6.07
2019-01-30T16:56:50.550Z,5.13
2019-01-30T16:59:17.256Z,3.77
2019-01-30T17:01:44.075Z,3.63
2019-01-30T17:04:10.805Z,4.23
2019-01-30T17:06:37.554Z,3.93
2019-01-30T17:09:05.683Z,3.80
2019-01-30T17:11:32.399Z,4.43
2019-01-30T17:13:59.135Z,4.00
2019-01-30T17:16:27.072Z,5.90
2019-01-30T17:18:53.750Z,4.80
2019-01-30T17:21:20.488Z,4.30
2019-01-30T17:23:47.297Z,4.60
2019-01-30T17:26:14.042Z,4.40
2019-01-30T17:28:40.816Z,4.37
2019-01-30T17:31:07.715Z,4.23
2019-01-30T17:33:34.454Z,3.90
2019-01-30T17:36:01.183Z,5.00
2019-01-30T17:38:27.992Z,9.80
2019-01-30T17:40:54.680Z,10.33
2019-01-30T17:43:21.433Z,9.67
2019-01-30T17:45:48.181Z,13.10
2019-01-30T17:48:14.931Z,10.77
2019-01-30T17:50:41.696Z,7.60
2019-01-30T17:53:08.436Z,6.60
2019-01-30T17:55:35.217Z,13.60
2019-01-30T17:58:01.940Z,15.20
2019-01-30T18:00:35.440Z,13.83
2019-01-30T18:03:02.235Z,9.83
2019-01-30T18:05:28.976Z,9.07
2019-01-30T18:07:55.696Z,9.17
2019-01-30T18:10:22.493Z,9.17
2019-01-30T18:12:49.230Z,9.10
2019-01-30T18:15:15.977Z,8.20
2019-01-30T18:17:42.763Z,7.60
2019-01-30T18:20:18.428Z,6.73
2019-01-30T18:22:45.219Z,6.13
2019-01-30T18:25:16.750Z,6.30
2019-01-30T18:27:43.477Z,7.60
2019-01-30T18:30:14.705Z,7.83
2019-01-30T18:32:41.541Z,7.13
2019-01-30T18:35:08.773Z,8.03
2019-01-30T18:37:35.558Z,7.70
2019-01-30T18:40:04.889Z,6.60
2019-01-30T18:42:31.615Z,6.47
2019-01-30T18:44:58.429Z,6.23
2019-01-30T18:47:25.174Z,6.47
2019-01-30T18:49:51.884Z,6.53
2019-01-30T18:52:18.656Z,5.50
2019-01-30T18:54:45.393Z,5.67
2019-01-30T18:57:12.126Z,6.83
2019-01-30T18:59:38.899Z,7.03
2019-01-30T19:02:05.624Z,8.47
2019-01-30T19:04:32.551Z,7.97
2019-01-30T19:06:59.334Z,7.50
2019-01-30T19:09:26.081Z,7.53
2019-01-30T19:11:52.825Z,7.73
2019-01-30T19:14:19.602Z,7.37
2019-01-30T19:16:46.329Z,6.63
2019-01-30T19:19:13.069Z,6.80
2019-01-30T19:21:39.832Z,8.37
2019-01-30T19:24:06.567Z,8.07
2019-01-30T19:26:33.308Z,8.43
2019-01-30T19:29:00.096Z,9.57
2019-01-30T19:31:26.875Z,11.40
2019-01-30T19:33:53.609Z,11.20
2019-01-30T19:36:20.394Z,10.57
2019-01-30T19:38:47.127Z,11.23
2019-01-30T19:41:13.877Z,10.13
2019-01-30T19:43:40.732Z,10.80
2019-01-30T19:46:07.517Z,10.17
2019-01-30T19:48:34.242Z,10.27
2019-01-30T19:51:01.732Z,9.80
2019-01-30T19:53:28.589Z,9.40
2019-01-30T19:55:55.328Z,10.63
2019-01-30T19:58:22.144Z,9.37
2019-01-30T20:00:48.873Z,9.10
2019-01-30T20:03:18.523Z,9.83
2019-01-30T20:05:45.306Z,10.27
2019-01-30T20:08:12.045Z,10.07
2019-01-30T20:10:38.802Z,9.90
2019-01-30T20:13:05.597Z,9.87
2019-01-30T20:15:32.325Z,9.90
2019-01-30T20:17:59.032Z,11.23
2019-01-30T20:20:25.861Z,9.80
2019-01-30T20:22:52.599Z,10.00
2019-01-30T20:25:33.044Z,10.40
2019-01-30T20:27:59.796Z,10.93
2019-01-30T20:30:26.525Z,9.70
2019-01-30T20:32:53.382Z,11.03
2019-01-30T20:35:20.103Z,10.93
2019-01-30T20:37:46.864Z,10.30
2019-01-30T20:40:23.717Z,8.83
2019-01-30T20:42:52.698Z,9.70
2019-01-30T20:45:19.012Z,9.50
2019-01-30T20:47:45.792Z,10.13
2019-01-30T20:50:20.819Z,10.47
2019-01-30T20:52:47.599Z,11.47
2019-01-30T20:55:15.927Z,10.83
2019-01-30T20:57:42.767Z,9.87
2019-01-30T21:00:20.245Z,10.30
2019-01-30T21:02:46.964Z,9.60
2019-01-30T21:05:13.740Z,9.43
2019-01-30T21:07:40.472Z,9.10
2019-01-30T21:10:21.309Z,9.80
2019-01-30T21:12:48.097Z,9.57
2019-01-30T21:15:15.432Z,7.30
2019-01-30T21:17:42.165Z,7.43
2019-01-30T21:20:11.636Z,7.60
2019-01-30T21:22:38.379Z,7.63
2019-01-30T21:25:09.718Z,9.47
2019-01-30T21:27:36.503Z,8.73
2019-01-30T21:30:08.543Z,8.33
2019-01-30T21:32:35.315Z,8.13
2019-01-30T21:35:02.390Z,8.63
2019-01-30T21:37:29.108Z,9.40
2019-01-30T21:39:55.822Z,8.83
2019-01-30T21:42:22.605Z,8.40
2019-01-30T21:44:49.335Z,9.83
2019-01-30T21:47:16.045Z,8.00
2019-01-30T21:49:42.849Z,7.30
2019-01-30T21:52:09.630Z,7.50
2019-01-30T21:54:36.372Z,7.50
2019-01-30T21:57:03.148Z,7.63
2019-01-30T21:59:29.900Z,8.20
2019-01-30T22:02:07.732Z,8.10
2019-01-30T22:04:25.189Z,7.73
2019-01-30T22:06:51.945Z,7.20
2019-01-30T22:09:18.663Z,7.47
2019-01-30T22:11:45.440Z,8.70
2019-01-30T22:14:12.168Z,8.20
2019-01-30T22:16:38.884Z,8.70
2019-01-30T22:19:05.774Z,8.77
2019-01-30T22:21:32.528Z,8.37
2019-01-30T22:24:05.554Z,8.60
2019-01-30T22:26:27.860Z,8.43
2019-01-30T22:28:54.604Z,7.50
2019-01-30T22:31:21.332Z,7.37
2019-01-30T22:33:48.156Z,8.30
2019-01-30T22:36:14.905Z,8.47
2019-01-30T22:38:41.655Z,8.00
2019-01-30T22:41:08.451Z,8.67
2019-01-30T22:43:35.179Z,9.47
2019-01-30T22:46:01.911Z,8.93
2019-01-30T22:48:28.696Z,9.70
2019-01-30T22:50:55.446Z,9.77
2019-01-30T22:53:22.184Z,11.17
2019-01-30T22:55:48.956Z,13.10
2019-01-30T22:58:15.708Z,11.67
2019-01-30T23:00:50.918Z,11.63
2019-01-30T23:03:27.550Z,12.00
2019-01-30T23:06:21.058Z,10.53
2019-01-30T23:08:59.239Z,10.87
2019-01-30T23:12:02.130Z,10.63
2019-01-30T23:14:28.960Z,10.40
2019-01-30T23:17:06.982Z,10.10
2019-01-30T23:19:41.879Z,9.83
2019-01-30T23:22:20.072Z,10.53
2019-01-30T23:25:23.897Z,9.57
2019-01-30T23:27:56.108Z,9.43
2019-01-30T23:30:42.938Z,10.17
2019-01-30T23:33:39.500Z,9.67
2019-01-30T23:36:37.406Z,9.80
2019-01-30T23:39:30.800Z,9.10
2019-01-30T23:42:17.806Z,8.63
2019-01-30T23:45:09.444Z,9.10
2019-01-30T23:48:07.228Z,9.40
2019-01-30T23:50:39.430Z,8.63
2019-01-30T23:53:32.047Z,7.77
2019-01-30T23:56:39.308Z,7.50
2019-01-30T23:59:31.032Z,7.37
